createdAt,value
2022-07-27T00:01:40.696Z,65.73
2022-07-27T00:04:17.128Z,65.85
2022-07-27T00:06:44.438Z,66.23
2022-07-27T00:09:11.818Z,66.68
2022-07-27T00:11:38.794Z,66.82
2022-07-27T00:14:05.392Z,67.39
2022-07-27T00:16:32.061Z,67.54
2022-07-27T00:18:58.567Z,67.88
2022-07-27T00:21:26.649Z,67.92
2022-07-27T00:23:54.447Z,68.07
2022-07-27T00:26:21.394Z,68.75
2022-07-27T00:28:48.576Z,68.88
2022-07-27T00:31:15.594Z,69.10
2022-07-27T00:33:42.147Z,69.32
2022-07-27T00:36:09.053Z,69.05
2022-07-27T00:38:35.618Z,69.33
2022-07-27T00:41:02.085Z,69.24
2022-07-27T00:43:28.627Z,69.48
2022-07-27T00:45:55.179Z,69.13
2022-07-27T00:48:21.717Z,69.50
2022-07-27T00:50:48.508Z,69.57
2022-07-27T00:53:15.635Z,69.96
2022-07-27T00:55:42.407Z,69.70
2022-07-27T00:58:09.033Z,69.70
2022-07-27T01:00:37.555Z,69.87
2022-07-27T01:03:09.302Z,70.00
2022-07-27T01:05:42.585Z,70.09
2022-07-27T01:08:12.442Z,70.26
2022-07-27T01:10:40.241Z,70.57
2022-07-27T01:13:06.768Z,70.41
2022-07-27T01:15:40.131Z,70.53
2022-07-27T01:18:11.661Z,70.29
2022-07-27T01:20:40.389Z,70.47
2022-07-27T01:23:06.912Z,70.45
2022-07-27T01:25:34.229Z,70.64
2022-07-27T01:28:00.978Z,70.95
2022-07-27T01:30:27.601Z,70.98
2022-07-27T01:33:04.568Z,71.18
2022-07-27T01:35:32.192Z,71.43
2022-07-27T01:38:00.125Z,71.23
2022-07-27T01:40:27.144Z,71.40
2022-07-27T01:42:53.843Z,71.57
2022-07-27T01:45:20.419Z,71.97
2022-07-27T01:47:47.141Z,72.52
2022-07-27T01:50:13.822Z,72.88
2022-07-27T01:52:40.402Z,72.80
2022-07-27T01:55:10.121Z,73.08
2022-07-27T01:57:37.514Z,74.05
2022-07-27T02:00:13.680Z,74.15
2022-07-27T02:02:41.433Z,74.07
2022-07-27T02:05:11.851Z,74.01
2022-07-27T02:07:41.540Z,74.35
2022-07-27T02:10:09.830Z,74.41
2022-07-27T02:12:36.363Z,74.53
2022-07-27T02:15:15.072Z,74.73
2022-07-27T02:17:43.524Z,75.04
2022-07-27T02:20:11.134Z,74.96
2022-07-27T02:22:37.724Z,75.18
2022-07-27T02:25:05.860Z,75.57
2022-07-27T02:27:32.522Z,75.79
2022-07-27T02:29:59.574Z,75.91
2022-07-27T02:32:26.484Z,76.25
2022-07-27T02:34:53.275Z,76.47
2022-07-27T02:37:19.839Z,76.64
2022-07-27T02:39:46.392Z,77.00
2022-07-27T02:42:13.203Z,76.81
2022-07-27T02:44:40.120Z,77.04
2022-07-27T02:47:06.850Z,77.60
2022-07-27T02:49:33.539Z,77.55
2022-07-27T02:52:00.146Z,77.58
2022-07-27T02:54:26.771Z,77.70
2022-07-27T02:56:54.884Z,78.09
2022-07-27T02:59:23.119Z,78.15
2022-07-27T03:01:50.018Z,78.35
2022-07-27T03:04:17.261Z,78.40
2022-07-27T03:06:44.325Z,78.89
2022-07-27T03:09:11.546Z,79.01
2022-07-27T03:11:38.667Z,79.14
2022-07-27T03:14:05.324Z,79.29
2022-07-27T03:16:31.906Z,79.49
2022-07-27T03:18:58.584Z,79.81
2022-07-27T03:21:25.578Z,79.87
2022-07-27T03:23:52.246Z,80.21
2022-07-27T03:26:19.224Z,80.18
2022-07-27T03:28:45.839Z,80.33
2022-07-27T03:31:12.458Z,80.39
2022-07-27T03:33:39.134Z,80.88
2022-07-27T03:36:05.820Z,80.60
2022-07-27T03:38:32.369Z,80.83
2022-07-27T03:40:59.868Z,81.03
2022-07-27T03:43:26.402Z,81.51
2022-07-27T03:45:53.112Z,81.49
2022-07-27T03:48:19.615Z,81.19
2022-07-27T03:50:46.245Z,80.79
2022-07-27T03:53:12.726Z,81.35
2022-07-27T03:55:39.277Z,81.36
2022-07-27T03:58:05.861Z,81.54
2022-07-27T04:00:32.401Z,81.59
2022-07-27T04:02:58.990Z,81.38
2022-07-27T04:05:29.579Z,81.65
2022-07-27T04:07:56.750Z,81.44
2022-07-27T04:10:25.013Z,81.38
2022-07-27T04:12:56.475Z,81.23
2022-07-27T04:15:23.126Z,81.22
2022-07-27T04:17:55.652Z,81.02
2022-07-27T04:20:24.473Z,81.33
2022-07-27T04:22:51.120Z,81.43
2022-07-27T04:25:17.654Z,81.19
2022-07-27T04:27:44.301Z,81.07
2022-07-27T04:30:11.410Z,80.99
2022-07-27T04:32:38.323Z,80.81
2022-07-27T04:35:07.418Z,81.43
2022-07-27T04:37:34.952Z,80.64
2022-07-27T04:40:02.101Z,80.46
2022-07-27T04:42:29.841Z,80.75
2022-07-27T04:44:56.955Z,80.70
2022-07-27T04:47:23.494Z,80.70
2022-07-27T04:49:50.182Z,80.70
2022-07-27T04:52:17.145Z,80.50
2022-07-27T04:54:44.307Z,80.25
2022-07-27T04:57:10.834Z,80.45
2022-07-27T04:59:37.525Z,80.04
2022-07-27T05:02:04.348Z,80.11
2022-07-27T05:04:30.967Z,80.24
2022-07-27T05:06:57.716Z,80.00
2022-07-27T05:09:24.489Z,80.19
2022-07-27T05:11:52.166Z,79.62
2022-07-27T05:14:21.072Z,79.96
2022-07-27T05:16:48.493Z,79.75
2022-07-27T05:19:15.622Z,79.87
2022-07-27T05:21:42.478Z,79.70
2022-07-27T05:24:10.270Z,79.84
2022-07-27T05:26:37.701Z,80.18
2022-07-27T05:29:04.447Z,79.90
2022-07-27T05:31:31.203Z,79.81
2022-07-27T05:33:58.597Z,79.74
2022-07-27T05:36:25.617Z,79.35
2022-07-27T05:38:52.169Z,79.32
2022-07-27T05:41:26.067Z,79.24
2022-07-27T05:43:54.416Z,78.48
2022-07-27T05:46:21.535Z,78.51
2022-07-27T05:48:48.156Z,78.86
2022-07-27T05:51:14.742Z,78.44
2022-07-27T05:53:43.880Z,79.20
2022-07-27T05:56:10.559Z,78.58
2022-07-27T05:58:37.482Z,78.20
2022-07-27T06:01:04.157Z,77.93
2022-07-27T06:03:31.304Z,77.66
2022-07-27T06:06:16.596Z,77.77
2022-07-27T06:08:43.483Z,77.42
2022-07-27T06:11:10.028Z,77.41
2022-07-27T06:13:37.099Z,77.04
2022-07-27T06:16:09.537Z,76.86
2022-07-27T06:18:39.011Z,76.39
2022-07-27T06:21:05.647Z,76.21
2022-07-27T06:23:32.328Z,75.28
2022-07-27T06:25:59.057Z,73.11
2022-07-27T06:28:25.801Z,73.05
2022-07-27T06:30:53.604Z,72.42
2022-07-27T06:33:28.921Z,71.86
2022-07-27T06:35:57.562Z,71.00
2022-07-27T06:38:25.522Z,70.88
2022-07-27T06:40:53.354Z,70.78
2022-07-27T06:43:21.455Z,70.02
2022-07-27T06:45:49.118Z,70.37
2022-07-27T06:48:16.952Z,69.94
2022-07-27T06:50:43.855Z,69.71
2022-07-27T06:53:10.435Z,68.35
2022-07-27T06:55:39.121Z,68.00
2022-07-27T06:58:05.654Z,67.71
2022-07-27T07:00:32.274Z,67.40
2022-07-27T07:03:02.923Z,67.34
2022-07-27T07:05:30.695Z,67.14
2022-07-27T07:07:57.818Z,65.32
2022-07-27T07:10:26.018Z,64.54
2022-07-27T07:12:55.923Z,65.26
2022-07-27T07:15:24.731Z,64.85
2022-07-27T07:17:51.219Z,64.21
2022-07-27T07:20:17.792Z,63.99
2022-07-27T07:22:44.401Z,64.14
2022-07-27T07:25:11.006Z,61.25
2022-07-27T07:27:37.933Z,60.85
2022-07-27T07:30:05.474Z,59.93
2022-07-27T07:32:33.679Z,59.17
2022-07-27T07:35:01.410Z,58.78
2022-07-27T07:37:33.447Z,58.12
2022-07-27T07:40:24.905Z,56.64
2022-07-27T07:42:48.905Z,56.69
2022-07-27T07:45:16.217Z,56.30
2022-07-27T07:47:42.742Z,56.53
2022-07-27T07:50:09.851Z,55.80
2022-07-27T07:52:37.251Z,55.94
2022-07-27T07:55:04.644Z,55.75
2022-07-27T07:57:31.119Z,55.77
2022-07-27T07:59:57.626Z,53.79
2022-07-27T08:02:24.391Z,53.56
2022-07-27T08:04:51.120Z,53.29
2022-07-27T08:07:17.785Z,54.00
2022-07-27T08:09:44.548Z,53.07
2022-07-27T08:12:11.198Z,52.76
2022-07-27T08:14:37.746Z,52.37
2022-07-27T08:17:05.944Z,52.23
2022-07-27T08:19:35.421Z,52.42
2022-07-27T08:22:06.240Z,52.27
2022-07-27T08:24:32.837Z,52.27
2022-07-27T08:26:59.560Z,50.99
2022-07-27T08:29:35.969Z,51.68
2022-07-27T08:32:05.960Z,51.59
2022-07-27T08:34:32.975Z,50.65
2022-07-27T08:36:59.564Z,50.77
2022-07-27T08:40:06.201Z,50.69
2022-07-27T08:42:12.773Z,51.32
2022-07-27T08:44:41.235Z,50.61
2022-07-27T08:47:11.131Z,50.58
2022-07-27T08:49:43.477Z,50.40
2022-07-27T08:52:11.634Z,48.86
2022-07-27T08:54:39.792Z,47.84
2022-07-27T08:57:10.416Z,49.00
2022-07-27T08:59:37.666Z,47.93
2022-07-27T09:02:09.055Z,48.66
2022-07-27T09:04:35.913Z,48.98
2022-07-27T09:07:02.518Z,48.79
2022-07-27T09:09:42.562Z,48.71
2022-07-27T09:12:10.654Z,48.25
2022-07-27T09:14:39.860Z,48.51
2022-07-27T09:17:48.004Z,48.56
2022-07-27T09:20:19.895Z,49.03
2022-07-27T09:22:52.439Z,50.34
2022-07-27T09:25:52.635Z,51.28
2022-07-27T09:28:29.029Z,51.65
2022-07-27T09:30:55.670Z,52.45
2022-07-27T09:33:22.395Z,52.24
2022-07-27T09:35:59.707Z,49.99
2022-07-27T09:38:26.828Z,49.64
2022-07-27T09:41:04.146Z,48.38
2022-07-27T09:46:29.646Z,47.41
2022-07-27T09:48:56.579Z,47.50
2022-07-27T09:54:13.033Z,47.18
2022-07-27T09:56:40.265Z,46.79
2022-07-27T09:59:06.820Z,46.90
2022-07-27T10:01:35.662Z,45.71
2022-07-27T10:04:05.859Z,45.57
2022-07-27T10:06:47.686Z,43.68
2022-07-27T10:09:20.832Z,42.36
2022-07-27T10:11:48.557Z,43.04
2022-07-27T10:14:16.316Z,43.47
2022-07-27T10:16:48.713Z,43.24
2022-07-27T10:19:20.097Z,43.63
2022-07-27T10:21:48.186Z,44.62
2022-07-27T10:24:32.171Z,44.53
2022-07-27T10:26:59.106Z,43.38
2022-07-27T10:29:25.931Z,42.50
2022-07-27T10:31:52.518Z,42.82
2022-07-27T10:34:38.536Z,40.82
2022-07-27T10:37:13.575Z,41.96
2022-07-27T10:40:20.491Z,41.07
2022-07-27T10:42:53.646Z,40.47
2022-07-27T10:45:22.103Z,40.22
2022-07-27T10:47:52.905Z,40.39
2022-07-27T10:50:20.907Z,40.60
2022-07-27T10:53:03.276Z,40.80
2022-07-27T10:55:30.175Z,39.86
2022-07-27T10:58:08.895Z,40.04
2022-07-27T11:00:56.754Z,39.86
2022-07-27T11:03:27.023Z,39.46
2022-07-27T11:06:04.775Z,39.08
2022-07-27T11:08:47.479Z,39.81
2022-07-27T11:11:20.028Z,40.35
2022-07-27T11:13:47.351Z,40.67
2022-07-27T11:16:23.899Z,41.21
2022-07-27T11:19:02.494Z,41.40
2022-07-27T11:21:37.838Z,41.40
2022-07-27T11:24:12.021Z,40.71
2022-07-27T11:26:41.804Z,40.30
2022-07-27T11:29:10.967Z,39.94
2022-07-27T11:31:54.750Z,40.15
2022-07-27T11:34:30.366Z,39.71
2022-07-27T11:37:03.684Z,38.96
2022-07-27T11:42:21.022Z,37.47
2022-07-27T11:44:48.676Z,37.80
2022-07-27T11:47:19.834Z,37.55
2022-07-27T11:49:46.866Z,37.90
2022-07-27T11:52:17.838Z,38.19
2022-07-27T11:54:51.291Z,39.06
2022-07-27T11:57:19.025Z,38.97
2022-07-27T11:59:46.202Z,39.42
2022-07-27T12:02:17.800Z,39.88
2022-07-27T12:04:47.244Z,39.35
2022-07-27T12:07:17.710Z,38.99
2022-07-27T12:09:48.143Z,38.70
2022-07-27T12:12:23.596Z,39.55
2022-07-27T12:14:51.982Z,39.89
2022-07-27T12:17:35.633Z,39.88
2022-07-27T12:20:08.384Z,40.01
2022-07-27T12:22:46.575Z,39.59
2022-07-27T12:25:19.104Z,38.14
2022-07-27T12:28:01.887Z,38.20
2022-07-27T12:30:33.037Z,38.80
2022-07-27T12:33:00.990Z,39.22
2022-07-27T12:35:48.030Z,40.69
2022-07-27T12:38:15.157Z,39.87
2022-07-27T12:40:50.859Z,40.37
2022-07-27T12:43:20.113Z,40.04
2022-07-27T12:45:48.699Z,39.88
2022-07-27T12:48:25.438Z,39.60
2022-07-27T12:51:04.722Z,39.03
2022-07-27T12:53:32.855Z,38.61
2022-07-27T12:56:02.060Z,38.92
2022-07-27T12:58:28.566Z,39.13
2022-07-27T13:00:55.189Z,39.62
2022-07-27T13:03:21.956Z,39.55
2022-07-27T13:05:48.860Z,39.79
2022-07-27T13:08:16.410Z,39.65
2022-07-27T13:10:44.450Z,39.63
2022-07-27T13:13:11.485Z,39.91
2022-07-27T13:15:38.062Z,40.36
2022-07-27T13:18:04.607Z,40.37
2022-07-27T13:20:31.585Z,40.05
2022-07-27T13:22:58.305Z,40.07
2022-07-27T13:25:24.947Z,38.61
2022-07-27T13:27:51.543Z,38.38
2022-07-27T13:30:19.018Z,37.39
2022-07-27T13:32:48.770Z,36.97
2022-07-27T13:35:17.029Z,36.10
2022-07-27T13:37:44.685Z,36.23
2022-07-27T13:40:11.902Z,35.83
2022-07-27T13:42:38.504Z,36.69
2022-07-27T13:45:10.232Z,37.04
2022-07-27T13:47:38.480Z,37.69
2022-07-27T13:50:05.589Z,38.05
2022-07-27T13:52:32.268Z,37.87
2022-07-27T13:54:58.812Z,37.78
2022-07-27T13:57:25.600Z,38.33
2022-07-27T13:59:52.700Z,37.57
2022-07-27T14:02:23.051Z,38.27
2022-07-27T14:04:51.775Z,37.55
2022-07-27T14:07:18.434Z,37.81
2022-07-27T14:10:03.407Z,37.73
2022-07-27T14:12:29.984Z,37.79
2022-07-27T14:14:56.573Z,38.14
2022-07-27T14:17:23.282Z,38.03
2022-07-27T14:19:49.924Z,37.65
2022-07-27T14:22:16.623Z,38.34
2022-07-27T14:24:43.242Z,38.20
2022-07-27T14:27:09.789Z,37.99
2022-07-27T14:29:36.293Z,38.10
2022-07-27T14:32:03.135Z,38.56
2022-07-27T14:34:29.725Z,37.51
2022-07-27T14:36:56.270Z,37.75
2022-07-27T14:39:22.765Z,38.41
2022-07-27T14:41:49.567Z,38.53
2022-07-27T14:44:18.266Z,38.48
2022-07-27T14:46:46.295Z,38.36
2022-07-27T14:49:14.588Z,38.43
2022-07-27T14:51:42.791Z,38.67
2022-07-27T14:54:09.348Z,38.63
2022-07-27T14:56:36.638Z,39.41
2022-07-27T14:59:03.791Z,39.15
2022-07-27T15:01:30.398Z,39.59
2022-07-27T15:03:56.954Z,40.17
2022-07-27T15:06:23.519Z,40.28
2022-07-27T15:08:50.160Z,40.26
2022-07-27T15:11:16.741Z,39.99
2022-07-27T15:13:43.283Z,39.57
2022-07-27T15:16:11.275Z,39.84
2022-07-27T15:18:39.135Z,40.03
2022-07-27T15:21:12.442Z,39.91
2022-07-27T15:23:43.737Z,39.61
2022-07-27T15:26:11.642Z,39.95
2022-07-27T15:28:39.190Z,39.81
2022-07-27T15:31:06.075Z,38.91
2022-07-27T15:33:32.767Z,38.91
2022-07-27T15:35:59.384Z,38.68
2022-07-27T15:38:25.980Z,38.49
2022-07-27T15:40:52.566Z,37.77
2022-07-27T15:43:19.859Z,37.64
2022-07-27T15:45:49.575Z,37.69
2022-07-27T15:48:19.428Z,37.97
2022-07-27T15:50:49.072Z,37.98
2022-07-27T15:53:17.049Z,38.61
2022-07-27T15:55:44.688Z,38.96
2022-07-27T15:58:13.898Z,39.41
2022-07-27T16:00:41.584Z,39.77
2022-07-27T16:03:12.188Z,39.75
2022-07-27T16:05:40.476Z,39.65
2022-07-27T16:08:09.681Z,37.31
2022-07-27T16:10:37.935Z,32.37
2022-07-27T16:13:05.591Z,32.12
2022-07-27T16:15:52.454Z,31.25
2022-07-27T16:18:19.137Z,32.86
2022-07-27T16:20:45.729Z,33.70
2022-07-27T16:23:18.218Z,34.99
2022-07-27T16:26:04.109Z,35.35
2022-07-27T16:28:33.547Z,35.87
2022-07-27T16:31:00.150Z,37.02
2022-07-27T16:33:26.669Z,37.13
2022-07-27T16:35:53.215Z,37.86
2022-07-27T16:38:19.823Z,38.39
2022-07-27T16:40:47.087Z,38.59
2022-07-27T16:43:13.589Z,39.00
2022-07-27T16:45:40.316Z,39.49
2022-07-27T16:48:06.935Z,39.90
2022-07-27T16:50:33.609Z,40.29
2022-07-27T16:53:01.347Z,40.58
2022-07-27T16:55:28.336Z,40.74
2022-07-27T16:57:55.856Z,40.83
2022-07-27T17:00:22.849Z,41.18
2022-07-27T17:02:49.473Z,41.33
2022-07-27T17:05:16.041Z,41.41
2022-07-27T17:07:43.082Z,41.06
2022-07-27T17:10:10.016Z,40.79
2022-07-27T17:12:39.114Z,40.37
2022-07-27T17:15:07.092Z,40.66
2022-07-27T17:17:34.520Z,40.45
2022-07-27T17:20:01.369Z,40.54
2022-07-27T17:22:27.978Z,41.06
2022-07-27T17:24:54.638Z,41.00
2022-07-27T17:27:22.031Z,40.47
2022-07-27T17:29:49.514Z,40.46
2022-07-27T17:32:16.413Z,40.11
2022-07-27T17:34:45.357Z,40.39
2022-07-27T17:37:12.761Z,40.97
2022-07-27T17:39:39.559Z,40.92
2022-07-27T17:42:06.737Z,41.07
2022-07-27T17:44:34.020Z,41.36
2022-07-27T17:47:01.814Z,41.72
2022-07-27T17:49:28.607Z,42.19
2022-07-27T17:51:55.373Z,42.61
2022-07-27T17:54:23.906Z,42.72
2022-07-27T17:56:50.548Z,42.92
2022-07-27T18:02:04.910Z,43.14
2022-07-27T18:04:35.620Z,43.36
2022-07-27T18:07:05.421Z,43.78
2022-07-27T18:09:31.978Z,43.79
2022-07-27T18:11:58.537Z,43.93
2022-07-27T18:14:25.078Z,43.83
2022-07-27T18:16:51.680Z,43.95
2022-07-27T18:19:19.217Z,43.73
2022-07-27T18:21:45.779Z,42.99
2022-07-27T18:24:12.254Z,42.34
2022-07-27T18:26:38.974Z,41.36
2022-07-27T18:29:05.732Z,41.29
2022-07-27T18:31:32.598Z,41.09
2022-07-27T18:33:59.344Z,41.33
2022-07-27T18:36:26.253Z,41.99
2022-07-27T18:38:52.794Z,42.15
2022-07-27T18:41:19.494Z,42.89
2022-07-27T18:43:51.205Z,43.19
2022-07-27T18:46:22.349Z,43.70
2022-07-27T18:48:49.442Z,44.55
2022-07-27T18:51:16.629Z,44.82
2022-07-27T18:53:44.116Z,45.46
2022-07-27T18:56:10.906Z,45.70
2022-07-27T18:58:37.612Z,46.04
2022-07-27T19:01:04.394Z,46.69
2022-07-27T19:03:31.421Z,46.92
2022-07-27T19:05:58.853Z,47.32
2022-07-27T19:08:25.421Z,47.82
2022-07-27T19:10:52.470Z,48.28
2022-07-27T19:13:19.115Z,48.87
2022-07-27T19:15:45.826Z,49.62
2022-07-27T19:18:12.605Z,49.74
2022-07-27T19:20:39.120Z,50.16
2022-07-27T19:23:06.948Z,50.32
2022-07-27T19:25:34.107Z,50.57
2022-07-27T19:28:02.807Z,50.42
2022-07-27T19:30:29.702Z,50.71
2022-07-27T19:32:56.515Z,51.20
2022-07-27T19:35:23.363Z,51.61
2022-07-27T19:37:49.916Z,52.10
2022-07-27T19:43:06.015Z,53.39
2022-07-27T19:45:33.360Z,53.98
2022-07-27T19:48:01.672Z,54.64
2022-07-27T19:50:29.033Z,55.88
2022-07-27T19:52:55.574Z,55.75
2022-07-27T19:55:22.106Z,55.95
2022-07-27T19:57:48.673Z,56.34
2022-07-27T20:00:15.625Z,56.01
2022-07-27T20:02:42.269Z,56.15
2022-07-27T20:05:09.201Z,56.25
2022-07-27T20:07:37.162Z,56.49
2022-07-27T20:10:05.712Z,56.35
2022-07-27T20:12:32.788Z,57.15
2022-07-27T20:15:00.374Z,57.02
2022-07-27T20:17:26.889Z,57.43
2022-07-27T20:19:53.574Z,57.07
2022-07-27T20:22:20.327Z,56.98
2022-07-27T20:24:46.915Z,57.17
2022-07-27T20:27:13.662Z,56.56
2022-07-27T20:29:40.355Z,57.27
2022-07-27T20:32:07.711Z,56.77
2022-07-27T20:34:34.370Z,56.88
2022-07-27T20:37:01.104Z,57.18
2022-07-27T20:39:27.721Z,57.61
2022-07-27T20:41:54.523Z,57.80
2022-07-27T20:44:21.226Z,57.75
2022-07-27T20:46:48.152Z,57.75
2022-07-27T20:49:15.209Z,58.25
2022-07-27T20:51:42.193Z,58.55
2022-07-27T20:54:08.743Z,58.87
2022-07-27T20:56:35.425Z,59.14
2022-07-27T20:59:02.092Z,59.18
2022-07-27T21:01:34.393Z,59.40
2022-07-27T21:04:01.173Z,59.89
2022-07-27T21:06:27.944Z,59.96
2022-07-27T21:08:54.491Z,60.32
2022-07-27T21:11:21.005Z,60.25
2022-07-27T21:13:47.793Z,60.85
2022-07-27T21:16:14.527Z,60.96
2022-07-27T21:18:41.195Z,60.98
2022-07-27T21:21:07.819Z,61.74
2022-07-27T21:23:53.133Z,61.45
2022-07-27T21:26:19.848Z,61.26
2022-07-27T21:28:47.973Z,62.04
2022-07-27T21:31:14.592Z,62.33
2022-07-27T21:33:41.132Z,62.36
2022-07-27T21:36:07.972Z,63.07
2022-07-27T21:38:34.769Z,62.94
2022-07-27T21:41:01.397Z,62.98
2022-07-27T21:43:27.905Z,63.18
2022-07-27T21:45:54.497Z,63.19
2022-07-27T21:48:21.046Z,63.72
2022-07-27T21:50:47.631Z,64.30
2022-07-27T21:53:14.440Z,64.68
2022-07-27T21:55:41.066Z,63.95
2022-07-27T21:58:08.412Z,64.25
2022-07-27T22:00:34.963Z,64.64
2022-07-27T22:03:01.588Z,64.80
2022-07-27T22:05:28.099Z,65.02
2022-07-27T22:07:54.592Z,65.00
2022-07-27T22:10:21.169Z,65.08
2022-07-27T22:12:47.693Z,65.59
2022-07-27T22:15:14.193Z,66.01
2022-07-27T22:17:49.875Z,66.21
2022-07-27T22:20:18.589Z,66.07
2022-07-27T22:22:45.565Z,66.16
2022-07-27T22:25:12.065Z,66.20
2022-07-27T22:27:38.737Z,66.64
2022-07-27T22:30:06.153Z,66.84
2022-07-27T22:32:32.751Z,67.14
2022-07-27T22:34:59.271Z,67.16
2022-07-27T22:37:25.969Z,67.37
2022-07-27T22:39:52.863Z,67.43
2022-07-27T22:42:19.447Z,67.50
2022-07-27T22:44:45.917Z,67.99
2022-07-27T22:47:12.533Z,67.72
2022-07-27T22:49:39.279Z,68.34
2022-07-27T22:52:06.273Z,68.18
2022-07-27T22:54:37.615Z,68.61
2022-07-27T22:57:05.874Z,68.65
2022-07-27T22:59:33.422Z,68.85
2022-07-27T23:02:00.366Z,69.06
2022-07-27T23:04:27.009Z,69.43
2022-07-27T23:06:53.583Z,69.60
2022-07-27T23:09:20.125Z,69.43
2022-07-27T23:11:46.655Z,69.86
2022-07-27T23:14:13.577Z,69.82
2022-07-27T23:16:41.951Z,70.48
2022-07-27T23:19:09.126Z,70.41
2022-07-27T23:21:37.379Z,70.74
2022-07-27T23:24:04.877Z,70.67
2022-07-27T23:26:31.672Z,70.78
2022-07-27T23:28:58.320Z,71.14
2022-07-27T23:31:25.972Z,71.32
2022-07-27T23:33:52.629Z,71.45
2022-07-27T23:36:19.152Z,71.70
2022-07-27T23:38:45.804Z,72.06
2022-07-27T23:41:12.576Z,72.46
2022-07-27T23:43:39.228Z,72.80
2022-07-27T23:46:06.826Z,72.68
2022-07-27T23:48:33.574Z,73.20
2022-07-27T23:51:00.118Z,73.20
2022-07-27T23:53:28.354Z,73.83
2022-07-27T23:55:55.010Z,73.70
2022-07-27T23:58:21.540Z,74.25
